sensor_id;sensor_type;location;lat;lon;timestamp;P1;durP1;ratioP1;P2;durP2;ratioP2
68074;SDS011;54864;52.002;5.468;2023-03-23T00:00:54;11.70;;;5.10;;
68074;SDS011;54864;52.002;5.468;2023-03-23T00:01:54;7.40;;;4.68;;
68074;SDS011;54864;52.002;5.468;2023-03-23T00:02:56;9.18;;;4.88;;
68074;SDS011;54864;52.002;5.468;2023-03-23T00:03:57;12.57;;;5.27;;
68074;SDS011;54864;52.002;5.468;2023-03-23T00:05:01;12.18;;;5.43;;
68074;SDS011;54864;52.002;5.468;2023-03-23T00:06:03;9.57;;;4.68;;
68074;SDS011;54864;52.002;5.468;2023-03-23T00:07:06;9.30;;;5.10;;
68074;SDS011;54864;52.002;5.468;2023-03-23T00:08:07;8.98;;;4.82;;
68074;SDS011;54864;52.002;5.468;2023-03-23T00:09:13;8.63;;;4.72;;
68074;SDS011;54864;52.002;5.468;2023-03-23T00:10:15;8.32;;;4.70;;
68074;SDS011;54864;52.002;5.468;2023-03-23T00:11:17;9.27;;;4.65;;
68074;SDS011;54864;52.002;5.468;2023-03-23T00:12:20;8.93;;;4.43;;
68074;SDS011;54864;52.002;5.468;2023-03-23T00:13:33;10.73;;;4.80;;
68074;SDS011;54864;52.002;5.468;2023-03-23T00:14:34;9.73;;;4.75;;
68074;SDS011;54864;52.002;5.468;2023-03-23T00:15:41;8.15;;;5.03;;
68074;SDS011;54864;52.002;5.468;2023-03-23T00:16:43;10.85;;;4.40;;
68074;SDS011;54864;52.002;5.468;2023-03-23T00:17:45;7.47;;;4.03;;
68074;SDS011;54864;52.002;5.468;2023-03-23T00:18:47;9.73;;;4.70;;
68074;SDS011;54864;52.002;5.468;2023-03-23T00:19:52;9.40;;;4.53;;
68074;SDS011;54864;52.002;5.468;2023-03-23T00:20:56;9.43;;;4.57;;
68074;SDS011;54864;52.002;5.468;2023-03-23T00:21:57;10.90;;;5.00;;
68074;SDS011;54864;52.002;5.468;2023-03-23T00:23:00;10.43;;;4.95;;
68074;SDS011;54864;52.002;5.468;2023-03-23T00:24:02;8.20;;;4.47;;
68074;SDS011;54864;52.002;5.468;2023-03-23T00:25:06;7.80;;;4.70;;
68074;SDS011;54864;52.002;5.468;2023-03-23T00:26:08;7.05;;;4.20;;
68074;SDS011;54864;52.002;5.468;2023-03-23T00:27:13;10.23;;;4.82;;
68074;SDS011;54864;52.002;5.468;2023-03-23T00:28:15;10.57;;;4.30;;
68074;SDS011;54864;52.002;5.468;2023-03-23T00:29:18;9.93;;;4.40;;
68074;SDS011;54864;52.002;5.468;2023-03-23T00:30:21;9.80;;;4.88;;
68074;SDS011;54864;52.002;5.468;2023-03-23T00:31:23;9.70;;;5.03;;
68074;SDS011;54864;52.002;5.468;2023-03-23T00:32:24;9.55;;;4.38;;
68074;SDS011;54864;52.002;5.468;2023-03-23T00:33:29;7.43;;;4.47;;
68074;SDS011;54864;52.002;5.468;2023-03-23T00:34:33;8.45;;;4.40;;
68074;SDS011;54864;52.002;5.468;2023-03-23T00:35:35;10.23;;;4.70;;
68074;SDS011;54864;52.002;5.468;2023-03-23T00:36:37;7.97;;;4.50;;
68074;SDS011;54864;52.002;5.468;2023-03-23T00:37:42;7.38;;;4.32;;
68074;SDS011;54864;52.002;5.468;2023-03-23T00:38:44;10.63;;;4.95;;
68074;SDS011;54864;52.002;5.468;2023-03-23T00:39:47;10.38;;;4.45;;
68074;SDS011;54864;52.002;5.468;2023-03-23T00:40:48;8.20;;;4.28;;
68074;SDS011;54864;52.002;5.468;2023-03-23T00:41:50;10.30;;;4.70;;
68074;SDS011;54864;52.002;5.468;2023-03-23T00:42:51;11.70;;;4.90;;
68074;SDS011;54864;52.002;5.468;2023-03-23T00:43:52;8.05;;;4.53;;
68074;SDS011;54864;52.002;5.468;2023-03-23T00:44:54;9.10;;;4.57;;
68074;SDS011;54864;52.002;5.468;2023-03-23T00:46:01;8.50;;;4.68;;
68074;SDS011;54864;52.002;5.468;2023-03-23T00:47:02;12.23;;;5.10;;
68074;SDS011;54864;52.002;5.468;2023-03-23T00:48:04;9.25;;;4.82;;
68074;SDS011;54864;52.002;5.468;2023-03-23T00:49:05;8.07;;;4.47;;
68074;SDS011;54864;52.002;5.468;2023-03-23T00:50:15;12.80;;;4.55;;
68074;SDS011;54864;52.002;5.468;2023-03-23T00:51:17;7.90;;;4.10;;
68074;SDS011;54864;52.002;5.468;2023-03-23T00:52:21;9.65;;;4.18;;
68074;SDS011;54864;52.002;5.468;2023-03-23T00:53:22;7.53;;;4.10;;
68074;SDS011;54864;52.002;5.468;2023-03-23T00:54:25;8.63;;;4.10;;
68074;SDS011;54864;52.002;5.468;2023-03-23T00:55:25;8.93;;;4.28;;
68074;SDS011;54864;52.002;5.468;2023-03-23T00:56:27;8.32;;;4.18;;
68074;SDS011;54864;52.002;5.468;2023-03-23T00:57:28;7.87;;;4.07;;
68074;SDS011;54864;52.002;5.468;2023-03-23T00:58:30;7.57;;;3.70;;
68074;SDS011;54864;52.002;5.468;2023-03-23T00:59:30;5.95;;;4.22;;
68074;SDS011;54864;52.002;5.468;2023-03-23T01:00:32;7.83;;;4.07;;
68074;SDS011;54864;52.002;5.468;2023-03-23T01:01:33;8.53;;;4.07;;
68074;SDS011;54864;52.002;5.468;2023-03-23T01:02:35;7.15;;;4.13;;
68074;SDS011;54864;52.002;5.468;2023-03-23T01:03:36;10.65;;;3.88;;
68074;SDS011;54864;52.002;5.468;2023-03-23T01:04:38;8.10;;;4.28;;
68074;SDS011;54864;52.002;5.468;2023-03-23T01:05:39;8.02;;;4.18;;
68074;SDS011;54864;52.002;5.468;2023-03-23T01:06:41;8.25;;;4.28;;
68074;SDS011;54864;52.002;5.468;2023-03-23T01:07:44;10.13;;;4.50;;
68074;SDS011;54864;52.002;5.468;2023-03-23T01:08:47;8.15;;;4.20;;
68074;SDS011;54864;52.002;5.468;2023-03-23T01:09:48;9.10;;;4.38;;
68074;SDS011;54864;52.002;5.468;2023-03-23T01:11:01;6.82;;;4.18;;
68074;SDS011;54864;52.002;5.468;2023-03-23T01:12:03;8.52;;;4.10;;
68074;SDS011;54864;52.002;5.468;2023-03-23T01:13:06;8.20;;;4.50;;
68074;SDS011;54864;52.002;5.468;2023-03-23T01:14:07;7.22;;;4.13;;
68074;SDS011;54864;52.002;5.468;2023-03-23T01:15:15;10.35;;;4.93;;
68074;SDS011;54864;52.002;5.468;2023-03-23T01:16:17;6.82;;;3.90;;
68074;SDS011;54864;52.002;5.468;2023-03-23T01:17:19;6.60;;;3.78;;
68074;SDS011;54864;52.002;5.468;2023-03-23T01:18:21;8.05;;;4.03;;
68074;SDS011;54864;52.002;5.468;2023-03-23T01:19:22;7.40;;;4.10;;
68074;SDS011;54864;52.002;5.468;2023-03-23T01:20:23;6.50;;;3.53;;
68074;SDS011;54864;52.002;5.468;2023-03-23T01:21:28;5.25;;;3.80;;
68074;SDS011;54864;52.002;5.468;2023-03-23T01:22:29;6.03;;;3.78;;
68074;SDS011;54864;52.002;5.468;2023-03-23T01:23:34;6.80;;;4.03;;
68074;SDS011;54864;52.002;5.468;2023-03-23T01:24:35;5.03;;;4.15;;
68074;SDS011;54864;52.002;5.468;2023-03-23T01:25:37;6.82;;;3.92;;
68074;SDS011;54864;52.002;5.468;2023-03-23T01:26:37;8.27;;;3.42;;
68074;SDS011;54864;52.002;5.468;2023-03-23T01:27:42;5.97;;;3.47;;
68074;SDS011;54864;52.002;5.468;2023-03-23T01:28:42;8.32;;;4.00;;
68074;SDS011;54864;52.002;5.468;2023-03-23T01:29:45;5.70;;;3.65;;
68074;SDS011;54864;52.002;5.468;2023-03-23T01:30:46;6.53;;;3.92;;
68074;SDS011;54864;52.002;5.468;2023-03-23T01:31:47;8.00;;;4.05;;
68074;SDS011;54864;52.002;5.468;2023-03-23T01:32:48;6.67;;;3.70;;
68074;SDS011;54864;52.002;5.468;2023-03-23T01:33:51;8.88;;;4.22;;
68074;SDS011;54864;52.002;5.468;2023-03-23T01:34:52;7.60;;;3.83;;
68074;SDS011;54864;52.002;5.468;2023-03-23T01:35:54;8.10;;;3.95;;
68074;SDS011;54864;52.002;5.468;2023-03-23T01:36:54;6.00;;;3.80;;
68074;SDS011;54864;52.002;5.468;2023-03-23T01:37:56;7.63;;;3.60;;
68074;SDS011;54864;52.002;5.468;2023-03-23T01:38:59;5.22;;;3.70;;
68074;SDS011;54864;52.002;5.468;2023-03-23T01:40:03;6.70;;;3.70;;
68074;SDS011;54864;52.002;5.468;2023-03-23T01:41:04;6.70;;;3.83;;
68074;SDS011;54864;52.002;5.468;2023-03-23T01:42:07;8.05;;;4.55;;
68074;SDS011;54864;52.002;5.468;2023-03-23T01:43:09;7.32;;;4.03;;
68074;SDS011;54864;52.002;5.468;2023-03-23T01:45:52;6.18;;;3.95;;
68074;SDS011;54864;52.002;5.468;2023-03-23T01:46:54;7.38;;;4.30;;
68074;SDS011;54864;52.002;5.468;2023-03-23T01:48:06;8.35;;;3.88;;
68074;SDS011;54864;52.002;5.468;2023-03-23T01:49:15;6.80;;;4.20;;
68074;SDS011;54864;52.002;5.468;2023-03-23T01:50:19;8.55;;;4.47;;
68074;SDS011;54864;52.002;5.468;2023-03-23T01:51:24;7.72;;;4.70;;
68074;SDS011;54864;52.002;5.468;2023-03-23T01:52:28;6.55;;;4.35;;
68074;SDS011;54864;52.002;5.468;2023-03-23T01:53:30;8.53;;;4.33;;
68074;SDS011;54864;52.002;5.468;2023-03-23T01:54:37;9.10;;;4.25;;
68074;SDS011;54864;52.002;5.468;2023-03-23T01:55:41;7.40;;;4.13;;
68074;SDS011;54864;52.002;5.468;2023-03-23T01:56:56;7.82;;;4.78;;
68074;SDS011;54864;52.002;5.468;2023-03-23T01:58:01;7.47;;;4.50;;
68074;SDS011;54864;52.002;5.468;2023-03-23T01:59:02;6.15;;;4.13;;
68074;SDS011;54864;52.002;5.468;2023-03-23T02:00:07;8.00;;;5.03;;
68074;SDS011;54864;52.002;5.468;2023-03-23T02:01:15;9.32;;;4.57;;
68074;SDS011;54864;52.002;5.468;2023-03-23T02:02:16;8.57;;;4.75;;
68074;SDS011;54864;52.002;5.468;2023-03-23T02:03:19;8.77;;;4.68;;
68074;SDS011;54864;52.002;5.468;2023-03-23T02:04:23;9.88;;;4.80;;
68074;SDS011;54864;52.002;5.468;2023-03-23T02:05:27;7.55;;;4.43;;
68074;SDS011;54864;52.002;5.468;2023-03-23T02:06:31;7.05;;;4.80;;
68074;SDS011;54864;52.002;5.468;2023-03-23T02:07:33;7.88;;;4.75;;
68074;SDS011;54864;52.002;5.468;2023-03-23T02:08:34;9.65;;;4.90;;
68074;SDS011;54864;52.002;5.468;2023-03-23T02:09:39;7.63;;;4.43;;
68074;SDS011;54864;52.002;5.468;2023-03-23T02:10:40;6.13;;;4.53;;
68074;SDS011;54864;52.002;5.468;2023-03-23T02:11:42;8.90;;;5.10;;
68074;SDS011;54864;52.002;5.468;2023-03-23T02:12:43;11.82;;;5.65;;
68074;SDS011;54864;52.002;5.468;2023-03-23T02:13:44;8.60;;;5.30;;
68074;SDS011;54864;52.002;5.468;2023-03-23T02:14:46;7.10;;;4.53;;
68074;SDS011;54864;52.002;5.468;2023-03-23T02:15:49;10.55;;;5.30;;
68074;SDS011;54864;52.002;5.468;2023-03-23T02:17:02;9.32;;;5.13;;
68074;SDS011;54864;52.002;5.468;2023-03-23T02:18:08;6.50;;;4.90;;
68074;SDS011;54864;52.002;5.468;2023-03-23T02:19:25;10.18;;;5.07;;
68074;SDS011;54864;52.002;5.468;2023-03-23T02:20:48;7.65;;;4.40;;
68074;SDS011;54864;52.002;5.468;2023-03-23T02:22:19;7.07;;;5.25;;
68074;SDS011;54864;52.002;5.468;2023-03-23T02:26:47;8.30;;;4.80;;
68074;SDS011;54864;52.002;5.468;2023-03-23T02:27:58;7.65;;;4.88;;
68074;SDS011;54864;52.002;5.468;2023-03-23T02:29:28;5.95;;;4.32;;
68074;SDS011;54864;52.002;5.468;2023-03-23T02:30:49;7.80;;;4.72;;
68074;SDS011;54864;52.002;5.468;2023-03-23T02:32:07;7.33;;;4.93;;
68074;SDS011;54864;52.002;5.468;2023-03-23T02:33:30;7.93;;;4.95;;
68074;SDS011;54864;52.002;5.468;2023-03-23T02:34:47;8.50;;;4.95;;
68074;SDS011;54864;52.002;5.468;2023-03-23T02:35:52;5.22;;;4.63;;
68074;SDS011;54864;52.002;5.468;2023-03-23T02:36:58;7.05;;;4.60;;
68074;SDS011;54864;52.002;5.468;2023-03-23T02:38:04;8.40;;;5.10;;
68074;SDS011;54864;52.002;5.468;2023-03-23T02:39:13;8.48;;;4.30;;
68074;SDS011;54864;52.002;5.468;2023-03-23T02:40:21;7.57;;;4.60;;
68074;SDS011;54864;52.002;5.468;2023-03-23T02:41:27;7.07;;;4.55;;
68074;SDS011;54864;52.002;5.468;2023-03-23T02:42:31;6.50;;;4.40;;
68074;SDS011;54864;52.002;5.468;2023-03-23T02:43:36;8.65;;;4.57;;
68074;SDS011;54864;52.002;5.468;2023-03-23T02:44:41;6.35;;;4.63;;
68074;SDS011;54864;52.002;5.468;2023-03-23T02:45:45;8.07;;;4.55;;
68074;SDS011;54864;52.002;5.468;2023-03-23T02:46:46;6.22;;;4.20;;
68074;SDS011;54864;52.002;5.468;2023-03-23T02:47:50;10.55;;;4.95;;
68074;SDS011;54864;52.002;5.468;2023-03-23T02:48:54;6.85;;;4.47;;
68074;SDS011;54864;52.002;5.468;2023-03-23T02:49:58;10.80;;;5.00;;
68074;SDS011;54864;52.002;5.468;2023-03-23T02:51:00;6.97;;;4.45;;
68074;SDS011;54864;52.002;5.468;2023-03-23T02:52:04;7.90;;;4.68;;
68074;SDS011;54864;52.002;5.468;2023-03-23T02:53:13;8.05;;;5.07;;
68074;SDS011;54864;52.002;5.468;2023-03-23T02:54:20;6.40;;;4.40;;
68074;SDS011;54864;52.002;5.468;2023-03-23T02:55:22;6.70;;;4.80;;
68074;SDS011;54864;52.002;5.468;2023-03-23T02:56:25;6.82;;;4.82;;
68074;SDS011;54864;52.002;5.468;2023-03-23T02:57:28;6.97;;;5.07;;
68074;SDS011;54864;52.002;5.468;2023-03-23T02:58:30;9.57;;;4.72;;
68074;SDS011;54864;52.002;5.468;2023-03-23T02:59:31;7.57;;;4.73;;
68074;SDS011;54864;52.002;5.468;2023-03-23T03:00:33;7.35;;;4.72;;
68074;SDS011;54864;52.002;5.468;2023-03-23T03:01:55;7.88;;;4.43;;
68074;SDS011;54864;52.002;5.468;2023-03-23T03:03:02;9.88;;;4.95;;
68074;SDS011;54864;52.002;5.468;2023-03-23T03:04:10;6.30;;;4.30;;
68074;SDS011;54864;52.002;5.468;2023-03-23T03:05:15;11.13;;;4.67;;
68074;SDS011;54864;52.002;5.468;2023-03-23T03:06:26;7.55;;;4.47;;
68074;SDS011;54864;52.002;5.468;2023-03-23T03:07:35;7.85;;;4.55;;
68074;SDS011;54864;52.002;5.468;2023-03-23T03:08:49;7.60;;;4.40;;
68074;SDS011;54864;52.002;5.468;2023-03-23T03:09:53;6.88;;;4.30;;
68074;SDS011;54864;52.002;5.468;2023-03-23T03:11:00;7.82;;;4.30;;
68074;SDS011;54864;52.002;5.468;2023-03-23T03:12:05;8.48;;;4.45;;
68074;SDS011;54864;52.002;5.468;2023-03-23T03:13:15;6.63;;;4.40;;
68074;SDS011;54864;52.002;5.468;2023-03-23T03:14:21;7.22;;;4.45;;
68074;SDS011;54864;52.002;5.468;2023-03-23T03:15:29;8.13;;;4.53;;
68074;SDS011;54864;52.002;5.468;2023-03-23T03:16:35;6.53;;;4.90;;
68074;SDS011;54864;52.002;5.468;2023-03-23T03:17:41;5.70;;;3.83;;
68074;SDS011;54864;52.002;5.468;2023-03-23T03:18:47;8.77;;;4.22;;
68074;SDS011;54864;52.002;5.468;2023-03-23T03:19:55;8.07;;;4.05;;
68074;SDS011;54864;52.002;5.468;2023-03-23T03:20:59;8.50;;;4.15;;
68074;SDS011;54864;52.002;5.468;2023-03-23T03:22:04;10.02;;;4.70;;
68074;SDS011;54864;52.002;5.468;2023-03-23T03:23:07;7.10;;;3.83;;
68074;SDS011;54864;52.002;5.468;2023-03-23T03:24:13;8.82;;;3.78;;
68074;SDS011;54864;52.002;5.468;2023-03-23T03:25:17;8.63;;;4.35;;
68074;SDS011;54864;52.002;5.468;2023-03-23T03:26:20;11.13;;;4.97;;
68074;SDS011;54864;52.002;5.468;2023-03-23T03:27:26;6.25;;;3.67;;
68074;SDS011;54864;52.002;5.468;2023-03-23T03:28:32;7.13;;;4.30;;
68074;SDS011;54864;52.002;5.468;2023-03-23T03:29:34;8.63;;;3.78;;
68074;SDS011;54864;52.002;5.468;2023-03-23T03:30:41;8.95;;;4.10;;
68074;SDS011;54864;52.002;5.468;2023-03-23T03:31:47;14.65;;;4.63;;
68074;SDS011;54864;52.002;5.468;2023-03-23T03:32:51;7.28;;;4.03;;
68074;SDS011;54864;52.002;5.468;2023-03-23T03:33:54;9.05;;;4.25;;
68074;SDS011;54864;52.002;5.468;2023-03-23T03:34:58;9.35;;;4.30;;
68074;SDS011;54864;52.002;5.468;2023-03-23T03:36:01;6.90;;;3.88;;
68074;SDS011;54864;52.002;5.468;2023-03-23T03:37:03;7.10;;;3.75;;
68074;SDS011;54864;52.002;5.468;2023-03-23T03:38:07;8.75;;;3.60;;
68074;SDS011;54864;52.002;5.468;2023-03-23T03:39:14;9.77;;;4.50;;
68074;SDS011;54864;52.002;5.468;2023-03-23T03:40:18;11.82;;;4.25;;
68074;SDS011;54864;52.002;5.468;2023-03-23T03:41:20;5.72;;;3.70;;
68074;SDS011;54864;52.002;5.468;2023-03-23T03:42:21;6.70;;;3.63;;
68074;SDS011;54864;52.002;5.468;2023-03-23T03:43:22;6.63;;;3.83;;
68074;SDS011;54864;52.002;5.468;2023-03-23T03:44:24;9.65;;;4.15;;
68074;SDS011;54864;52.002;5.468;2023-03-23T03:45:25;10.13;;;4.07;;
68074;SDS011;54864;52.002;5.468;2023-03-23T03:46:26;8.00;;;3.60;;
68074;SDS011;54864;52.002;5.468;2023-03-23T03:47:29;5.57;;;3.75;;
68074;SDS011;54864;52.002;5.468;2023-03-23T03:48:31;6.72;;;3.63;;
68074;SDS011;54864;52.002;5.468;2023-03-23T03:49:33;6.03;;;3.67;;
68074;SDS011;54864;52.002;5.468;2023-03-23T03:50:35;5.57;;;3.75;;
68074;SDS011;54864;52.002;5.468;2023-03-23T03:51:38;6.38;;;3.80;;
68074;SDS011;54864;52.002;5.468;2023-03-23T03:52:39;6.03;;;3.65;;
68074;SDS011;54864;52.002;5.468;2023-03-23T03:53:41;5.55;;;4.10;;
68074;SDS011;54864;52.002;5.468;2023-03-23T03:54:43;7.57;;;4.07;;
68074;SDS011;54864;52.002;5.468;2023-03-23T03:55:43;7.10;;;3.60;;
68074;SDS011;54864;52.002;5.468;2023-03-23T03:56:48;4.53;;;3.53;;
68074;SDS011;54864;52.002;5.468;2023-03-23T03:57:51;5.03;;;4.05;;
68074;SDS011;54864;52.002;5.468;2023-03-23T03:58:54;6.03;;;3.70;;
68074;SDS011;54864;52.002;5.468;2023-03-23T03:59:55;10.68;;;4.85;;
68074;SDS011;54864;52.002;5.468;2023-03-23T04:00:58;6.53;;;3.83;;
68074;SDS011;54864;52.002;5.468;2023-03-23T04:01:59;8.07;;;3.90;;
68074;SDS011;54864;52.002;5.468;2023-03-23T04:03:01;7.97;;;3.38;;
68074;SDS011;54864;52.002;5.468;2023-03-23T04:04:02;5.80;;;3.55;;
68074;SDS011;54864;52.002;5.468;2023-03-23T04:05:05;10.23;;;4.05;;
68074;SDS011;54864;52.002;5.468;2023-03-23T04:06:07;6.00;;;3.60;;
68074;SDS011;54864;52.002;5.468;2023-03-23T04:07:13;8.20;;;4.07;;
68074;SDS011;54864;52.002;5.468;2023-03-23T04:08:16;9.02;;;3.53;;
68074;SDS011;54864;52.002;5.468;2023-03-23T04:09:18;7.10;;;3.75;;
68074;SDS011;54864;52.002;5.468;2023-03-23T04:10:20;6.65;;;3.80;;
68074;SDS011;54864;52.002;5.468;2023-03-23T04:11:22;6.93;;;3.90;;
68074;SDS011;54864;52.002;5.468;2023-03-23T04:12:23;6.28;;;3.35;;
68074;SDS011;54864;52.002;5.468;2023-03-23T04:13:25;10.38;;;3.70;;
68074;SDS011;54864;52.002;5.468;2023-03-23T04:14:25;8.10;;;3.90;;
68074;SDS011;54864;52.002;5.468;2023-03-23T04:15:27;7.85;;;3.83;;
68074;SDS011;54864;52.002;5.468;2023-03-23T04:16:28;6.35;;;3.22;;
68074;SDS011;54864;52.002;5.468;2023-03-23T04:17:30;6.43;;;3.33;;
68074;SDS011;54864;52.002;5.468;2023-03-23T04:18:31;6.53;;;3.67;;
68074;SDS011;54864;52.002;5.468;2023-03-23T04:19:34;6.07;;;3.60;;
68074;SDS011;54864;52.002;5.468;2023-03-23T04:20:36;8.23;;;3.65;;
68074;SDS011;54864;52.002;5.468;2023-03-23T04:21:39;5.97;;;3.50;;
68074;SDS011;54864;52.002;5.468;2023-03-23T04:22:40;5.68;;;3.75;;
68074;SDS011;54864;52.002;5.468;2023-03-23T04:23:43;6.82;;;3.63;;
68074;SDS011;54864;52.002;5.468;2023-03-23T04:24:45;7.27;;;3.57;;
68074;SDS011;54864;52.002;5.468;2023-03-23T04:25:47;8.60;;;3.50;;
68074;SDS011;54864;52.002;5.468;2023-03-23T04:26:49;9.60;;;4.10;;
68074;SDS011;54864;52.002;5.468;2023-03-23T04:27:52;7.95;;;4.22;;
68074;SDS011;54864;52.002;5.468;2023-03-23T04:28:54;7.43;;;3.38;;
68074;SDS011;54864;52.002;5.468;2023-03-23T04:29:55;8.38;;;3.42;;
68074;SDS011;54864;52.002;5.468;2023-03-23T04:30:58;10.57;;;3.30;;
68074;SDS011;54864;52.002;5.468;2023-03-23T04:32:00;6.68;;;3.45;;
68074;SDS011;54864;52.002;5.468;2023-03-23T04:33:02;5.57;;;3.47;;
68074;SDS011;54864;52.002;5.468;2023-03-23T04:34:03;5.85;;;3.42;;
68074;SDS011;54864;52.002;5.468;2023-03-23T04:35:04;9.10;;;3.22;;
68074;SDS011;54864;52.002;5.468;2023-03-23T04:36:07;7.53;;;3.60;;
68074;SDS011;54864;52.002;5.468;2023-03-23T04:37:10;8.25;;;3.33;;
68074;SDS011;54864;52.002;5.468;2023-03-23T04:38:14;10.25;;;3.85;;
68074;SDS011;54864;52.002;5.468;2023-03-23T04:39:16;6.32;;;3.38;;
68074;SDS011;54864;52.002;5.468;2023-03-23T04:40:18;7.65;;;3.25;;
68074;SDS011;54864;52.002;5.468;2023-03-23T04:41:19;11.23;;;3.75;;
68074;SDS011;54864;52.002;5.468;2023-03-23T04:42:21;7.15;;;3.13;;
68074;SDS011;54864;52.002;5.468;2023-03-23T04:43:25;7.70;;;3.22;;
68074;SDS011;54864;52.002;5.468;2023-03-23T04:44:27;8.25;;;2.92;;
68074;SDS011;54864;52.002;5.468;2023-03-23T04:45:29;11.93;;;3.22;;
68074;SDS011;54864;52.002;5.468;2023-03-23T04:46:31;8.05;;;3.00;;
68074;SDS011;54864;52.002;5.468;2023-03-23T04:47:32;7.15;;;3.30;;
68074;SDS011;54864;52.002;5.468;2023-03-23T04:48:40;10.05;;;3.28;;
68074;SDS011;54864;52.002;5.468;2023-03-23T04:49:41;7.20;;;3.50;;
68074;SDS011;54864;52.002;5.468;2023-03-23T04:50:42;11.00;;;3.40;;
68074;SDS011;54864;52.002;5.468;2023-03-23T04:51:43;12.77;;;3.30;;
68074;SDS011;54864;52.002;5.468;2023-03-23T04:52:47;12.18;;;3.60;;
68074;SDS011;54864;52.002;5.468;2023-03-23T04:53:48;7.43;;;3.03;;
68074;SDS011;54864;52.002;5.468;2023-03-23T04:54:49;15.98;;;3.65;;
68074;SDS011;54864;52.002;5.468;2023-03-23T04:55:50;11.52;;;3.25;;
68074;SDS011;54864;52.002;5.468;2023-03-23T04:56:52;9.80;;;3.20;;
68074;SDS011;54864;52.002;5.468;2023-03-23T04:57:52;12.98;;;3.58;;
68074;SDS011;54864;52.002;5.468;2023-03-23T04:58:54;7.35;;;3.50;;
68074;SDS011;54864;52.002;5.468;2023-03-23T04:59:55;7.55;;;3.08;;
68074;SDS011;54864;52.002;5.468;2023-03-23T05:00:57;8.77;;;2.95;;
68074;SDS011;54864;52.002;5.468;2023-03-23T05:01:57;10.27;;;3.83;;
68074;SDS011;54864;52.002;5.468;2023-03-23T05:03:00;12.43;;;3.67;;
68074;SDS011;54864;52.002;5.468;2023-03-23T05:04:00;12.93;;;3.15;;
68074;SDS011;54864;52.002;5.468;2023-03-23T05:05:02;11.75;;;3.38;;
68074;SDS011;54864;52.002;5.468;2023-03-23T05:06:04;11.60;;;4.05;;
68074;SDS011;54864;52.002;5.468;2023-03-23T05:07:06;9.70;;;3.15;;
68074;SDS011;54864;52.002;5.468;2023-03-23T05:08:09;8.90;;;2.92;;
68074;SDS011;54864;52.002;5.468;2023-03-23T05:09:14;11.35;;;3.67;;
68074;SDS011;54864;52.002;5.468;2023-03-23T05:10:15;14.37;;;3.67;;
68074;SDS011;54864;52.002;5.468;2023-03-23T05:11:17;12.40;;;3.75;;
68074;SDS011;54864;52.002;5.468;2023-03-23T05:12:18;14.03;;;3.10;;
68074;SDS011;54864;52.002;5.468;2023-03-23T05:13:20;14.53;;;3.63;;
68074;SDS011;54864;52.002;5.468;2023-03-23T05:14:20;13.80;;;3.35;;
68074;SDS011;54864;52.002;5.468;2023-03-23T05:15:22;15.25;;;4.60;;
68074;SDS011;54864;52.002;5.468;2023-03-23T05:16:23;12.40;;;3.20;;
68074;SDS011;54864;52.002;5.468;2023-03-23T05:17:25;11.57;;;3.17;;
68074;SDS011;54864;52.002;5.468;2023-03-23T05:18:26;14.07;;;4.00;;
68074;SDS011;54864;52.002;5.468;2023-03-23T05:19:27;13.20;;;3.35;;
68074;SDS011;54864;52.002;5.468;2023-03-23T05:20:28;11.38;;;3.35;;
68074;SDS011;54864;52.002;5.468;2023-03-23T05:21:30;13.77;;;3.50;;
68074;SDS011;54864;52.002;5.468;2023-03-23T05:22:31;15.23;;;3.07;;
68074;SDS011;54864;52.002;5.468;2023-03-23T05:23:34;16.83;;;3.95;;
68074;SDS011;54864;52.002;5.468;2023-03-23T05:24:35;16.23;;;3.50;;
68074;SDS011;54864;52.002;5.468;2023-03-23T05:25:37;11.68;;;3.45;;
68074;SDS011;54864;52.002;5.468;2023-03-23T05:26:40;13.10;;;4.00;;
68074;SDS011;54864;52.002;5.468;2023-03-23T05:27:42;13.80;;;3.67;;
68074;SDS011;54864;52.002;5.468;2023-03-23T05:28:43;11.35;;;3.28;;
68074;SDS011;54864;52.002;5.468;2023-03-23T05:29:45;11.82;;;3.50;;
68074;SDS011;54864;52.002;5.468;2023-03-23T05:30:48;11.82;;;3.60;;
68074;SDS011;54864;52.002;5.468;2023-03-23T05:31:50;17.80;;;4.35;;
68074;SDS011;54864;52.002;5.468;2023-03-23T05:32:51;11.27;;;3.30;;
68074;SDS011;54864;52.002;5.468;2023-03-23T05:33:52;12.80;;;3.63;;
68074;SDS011;54864;52.002;5.468;2023-03-23T05:34:53;12.45;;;3.72;;
68074;SDS011;54864;52.002;5.468;2023-03-23T05:35:55;14.48;;;3.70;;
68074;SDS011;54864;52.002;5.468;2023-03-23T05:36:56;12.45;;;3.55;;
68074;SDS011;54864;52.002;5.468;2023-03-23T05:37:57;11.93;;;3.63;;
68074;SDS011;54864;52.002;5.468;2023-03-23T05:39:00;13.03;;;3.57;;
68074;SDS011;54864;52.002;5.468;2023-03-23T05:40:04;10.23;;;3.35;;
68074;SDS011;54864;52.002;5.468;2023-03-23T05:41:07;13.40;;;3.33;;
68074;SDS011;54864;52.002;5.468;2023-03-23T05:42:08;13.13;;;3.38;;
68074;SDS011;54864;52.002;5.468;2023-03-23T05:43:10;10.82;;;3.25;;
68074;SDS011;54864;52.002;5.468;2023-03-23T05:44:11;12.43;;;3.55;;
68074;SDS011;54864;52.002;5.468;2023-03-23T05:45:13;12.05;;;3.67;;
68074;SDS011;54864;52.002;5.468;2023-03-23T05:46:14;11.88;;;3.33;;
68074;SDS011;54864;52.002;5.468;2023-03-23T05:47:16;13.82;;;3.67;;
68074;SDS011;54864;52.002;5.468;2023-03-23T05:48:17;18.02;;;4.00;;
68074;SDS011;54864;52.002;5.468;2023-03-23T05:49:19;12.85;;;3.80;;
68074;SDS011;54864;52.002;5.468;2023-03-23T05:50:19;11.57;;;3.30;;
68074;SDS011;54864;52.002;5.468;2023-03-23T05:51:21;12.93;;;3.58;;
68074;SDS011;54864;52.002;5.468;2023-03-23T05:52:22;12.43;;;3.70;;
68074;SDS011;54864;52.002;5.468;2023-03-23T05:53:25;12.10;;;3.50;;
68074;SDS011;54864;52.002;5.468;2023-03-23T05:54:27;10.88;;;3.45;;
68074;SDS011;54864;52.002;5.468;2023-03-23T05:55:29;18.33;;;4.15;;
68074;SDS011;54864;52.002;5.468;2023-03-23T05:56:30;11.02;;;3.42;;
68074;SDS011;54864;52.002;5.468;2023-03-23T05:57:32;11.00;;;3.20;;
68074;SDS011;54864;52.002;5.468;2023-03-23T05:58:32;10.80;;;3.50;;
68074;SDS011;54864;52.002;5.468;2023-03-23T05:59:34;12.60;;;3.53;;
68074;SDS011;54864;52.002;5.468;2023-03-23T06:00:36;14.50;;;3.50;;
68074;SDS011;54864;52.002;5.468;2023-03-23T06:01:37;9.98;;;3.42;;
68074;SDS011;54864;52.002;5.468;2023-03-23T06:02:39;10.70;;;3.50;;
68074;SDS011;54864;52.002;5.468;2023-03-23T06:03:40;9.97;;;3.20;;
68074;SDS011;54864;52.002;5.468;2023-03-23T06:04:41;12.13;;;2.85;;
68074;SDS011;54864;52.002;5.468;2023-03-23T06:05:42;13.93;;;3.67;;
68074;SDS011;54864;52.002;5.468;2023-03-23T06:06:45;9.55;;;2.90;;
68074;SDS011;54864;52.002;5.468;2023-03-23T06:07:45;14.67;;;3.40;;
68074;SDS011;54864;52.002;5.468;2023-03-23T06:08:47;9.48;;;2.90;;
68074;SDS011;54864;52.002;5.468;2023-03-23T06:09:51;11.10;;;3.78;;
68074;SDS011;54864;52.002;5.468;2023-03-23T06:10:54;8.35;;;3.00;;
68074;SDS011;54864;52.002;5.468;2023-03-23T06:11:56;10.50;;;3.22;;
68074;SDS011;54864;52.002;5.468;2023-03-23T06:12:57;10.65;;;3.67;;
68074;SDS011;54864;52.002;5.468;2023-03-23T06:13:59;14.88;;;3.78;;
68074;SDS011;54864;52.002;5.468;2023-03-23T06:14:59;13.75;;;3.45;;
68074;SDS011;54864;52.002;5.468;2023-03-23T06:16:01;14.60;;;3.47;;
68074;SDS011;54864;52.002;5.468;2023-03-23T06:17:02;9.10;;;2.78;;
68074;SDS011;54864;52.002;5.468;2023-03-23T06:18:04;11.05;;;3.20;;
68074;SDS011;54864;52.002;5.468;2023-03-23T06:19:05;9.50;;;2.92;;
68074;SDS011;54864;52.002;5.468;2023-03-23T06:20:07;9.80;;;2.92;;
68074;SDS011;54864;52.002;5.468;2023-03-23T06:21:15;12.75;;;3.35;;
68074;SDS011;54864;52.002;5.468;2023-03-23T06:22:19;8.85;;;2.90;;
68074;SDS011;54864;52.002;5.468;2023-03-23T06:23:20;10.10;;;3.22;;
68074;SDS011;54864;52.002;5.468;2023-03-23T06:24:22;14.30;;;3.33;;
68074;SDS011;54864;52.002;5.468;2023-03-23T06:25:24;11.10;;;3.63;;